createdAt,value
2017-03-02T15:02:13.633Z,12.3
2017-03-02T15:07:03.192Z,11.3
2017-03-02T15:12:03.453Z,11.3
2017-03-02T15:17:13.653Z,10.5
2017-03-02T15:22:03.214Z,10.2
2017-03-02T15:27:03.451Z,10.2
2017-03-02T15:32:17.340Z,9.7
2017-03-02T15:37:02.963Z,9.6
2017-03-02T15:42:03.046Z,9.7
2017-03-02T15:47:10.591Z,10.8
2017-03-02T15:52:02.795Z,10.8
2017-03-02T15:57:03.052Z,10.5
2017-03-02T16:02:13.949Z,10.6
2017-03-02T16:07:02.801Z,10.6
2017-03-02T16:12:03.521Z,10.7
2017-03-02T16:17:13.834Z,11.9
2017-03-02T16:22:03.447Z,13.2
2017-03-02T16:27:02.757Z,13.8
2017-03-02T16:32:13.255Z,16.0
2017-03-02T16:37:03.274Z,15.3
2017-03-02T16:42:02.950Z,14.7
2017-03-02T16:47:14.060Z,13.7
2017-03-02T16:52:02.977Z,13.6
2017-03-02T16:57:02.822Z,12.6
2017-03-02T17:02:13.977Z,10.4
2017-03-02T17:07:03.079Z,10.4
2017-03-02T17:12:02.787Z,9.2
2017-03-02T17:17:13.415Z,9.1
2017-03-02T17:22:03.562Z,8.8
2017-03-02T17:27:03.400Z,8.3
2017-03-02T17:32:13.523Z,8.2
2017-03-02T17:37:02.821Z,8.0
2017-03-02T17:42:03.069Z,7.8
2017-03-02T17:47:11.561Z,7.6
2017-03-02T17:52:03.372Z,7.4
2017-03-02T17:57:02.978Z,7.3
2017-03-02T18:02:03.825Z,7.2
2017-03-02T18:07:03.174Z,7.2
2017-03-02T18:12:02.828Z,7.1
2017-03-02T18:17:03.440Z,7.1
2017-03-02T18:22:03.157Z,7.1
2017-03-02T18:27:02.962Z,6.9
2017-03-02T18:32:03.144Z,6.8
2017-03-02T18:37:03.232Z,6.7
2017-03-02T18:42:03.092Z,6.7
2017-03-02T18:47:03.608Z,6.7
2017-03-02T18:52:02.932Z,6.6
2017-03-02T18:57:03.270Z,6.7
2017-03-02T19:02:03.014Z,6.6
2017-03-02T19:07:03.295Z,6.5
2017-03-02T19:12:03.174Z,6.6
2017-03-02T19:17:03.252Z,6.6
2017-03-02T19:22:02.679Z,6.5
2017-03-02T19:27:03.566Z,6.5
2017-03-02T19:32:03.005Z,6.5
2017-03-02T19:37:02.923Z,6.5
2017-03-02T19:42:03.052Z,6.4
2017-03-02T19:47:03.270Z,6.3
2017-03-02T19:52:03.108Z,6.2
2017-03-02T19:57:03.236Z,6.2
2017-03-02T20:02:02.959Z,6.0
2017-03-02T20:07:03.060Z,6.0
2017-03-02T20:12:02.816Z,5.9
2017-03-02T20:17:03.260Z,5.9
2017-03-02T20:22:03.478Z,5.8
2017-03-02T20:27:02.830Z,5.8
2017-03-02T20:32:03.128Z,5.6
2017-03-02T20:37:03.251Z,5.6
2017-03-02T20:42:03.500Z,5.5
2017-03-02T20:47:03.013Z,5.4
2017-03-02T20:52:03.054Z,5.3
2017-03-02T20:57:03.242Z,5.2
